sensor_id;sensor_type;location;lat;lon;timestamp;P1;durP1;ratioP1;P2;durP2;ratioP2
22502;SDS011;11418;48.118;9.992;2022-07-30T00:01:40;11.02;;;6.88;;
22502;SDS011;11418;48.118;9.992;2022-07-30T00:05:40;10.85;;;7.47;;
22502;SDS011;11418;48.118;9.992;2022-07-30T00:09:41;10.45;;;6.95;;
22502;SDS011;11418;48.118;9.992;2022-07-30T00:13:41;8.10;;;6.60;;
22502;SDS011;11418;48.118;9.992;2022-07-30T00:17:42;8.70;;;6.78;;
22502;SDS011;11418;48.118;9.992;2022-07-30T00:21:42;9.88;;;7.38;;
22502;SDS011;11418;48.118;9.992;2022-07-30T00:25:43;8.38;;;7.43;;
22502;SDS011;11418;48.118;9.992;2022-07-30T00:29:44;11.52;;;7.60;;
22502;SDS011;11418;48.118;9.992;2022-07-30T00:33:44;8.23;;;7.40;;
22502;SDS011;11418;48.118;9.992;2022-07-30T00:37:45;14.50;;;8.98;;
22502;SDS011;11418;48.118;9.992;2022-07-30T00:41:58;13.65;;;7.82;;
22502;SDS011;11418;48.118;9.992;2022-07-30T00:46:00;8.52;;;7.18;;
22502;SDS011;11418;48.118;9.992;2022-07-30T00:50:01;11.32;;;7.55;;
22502;SDS011;11418;48.118;9.992;2022-07-30T00:54:03;11.68;;;7.32;;
22502;SDS011;11418;48.118;9.992;2022-07-30T00:58:04;9.05;;;7.18;;
22502;SDS011;11418;48.118;9.992;2022-07-30T01:02:04;9.20;;;7.45;;
22502;SDS011;11418;48.118;9.992;2022-07-30T01:06:05;9.57;;;7.28;;
22502;SDS011;11418;48.118;9.992;2022-07-30T01:10:06;10.25;;;7.05;;
22502;SDS011;11418;48.118;9.992;2022-07-30T01:14:08;9.93;;;6.90;;
22502;SDS011;11418;48.118;9.992;2022-07-30T01:18:09;12.05;;;8.10;;
22502;SDS011;11418;48.118;9.992;2022-07-30T01:22:15;9.25;;;7.38;;
22502;SDS011;11418;48.118;9.992;2022-07-30T01:26:27;9.23;;;7.65;;
22502;SDS011;11418;48.118;9.992;2022-07-30T01:30:30;11.63;;;8.48;;
22502;SDS011;11418;48.118;9.992;2022-07-30T01:34:33;9.77;;;7.75;;
22502;SDS011;11418;48.118;9.992;2022-07-30T01:38:36;9.23;;;8.15;;
22502;SDS011;11418;48.118;9.992;2022-07-30T01:42:39;9.32;;;8.07;;
22502;SDS011;11418;48.118;9.992;2022-07-30T01:46:40;9.00;;;8.10;;
22502;SDS011;11418;48.118;9.992;2022-07-30T01:50:42;10.20;;;8.38;;
22502;SDS011;11418;48.118;9.992;2022-07-30T01:54:45;13.80;;;8.40;;
22502;SDS011;11418;48.118;9.992;2022-07-30T01:58:50;10.07;;;8.13;;
22502;SDS011;11418;48.118;9.992;2022-07-30T02:02:51;12.07;;;8.65;;
22502;SDS011;11418;48.118;9.992;2022-07-30T02:11:06;12.73;;;8.48;;
22502;SDS011;11418;48.118;9.992;2022-07-30T02:15:10;9.48;;;8.13;;
22502;SDS011;11418;48.118;9.992;2022-07-30T02:19:13;8.90;;;7.95;;
22502;SDS011;11418;48.118;9.992;2022-07-30T02:23:16;10.82;;;8.70;;
22502;SDS011;11418;48.118;9.992;2022-07-30T02:27:32;13.38;;;8.70;;
22502;SDS011;11418;48.118;9.992;2022-07-30T02:31:36;11.23;;;8.77;;
22502;SDS011;11418;48.118;9.992;2022-07-30T02:35:38;10.25;;;8.20;;
22502;SDS011;11418;48.118;9.992;2022-07-30T02:39:40;13.02;;;8.68;;
22502;SDS011;11418;48.118;9.992;2022-07-30T02:43:42;9.48;;;8.35;;
22502;SDS011;11418;48.118;9.992;2022-07-30T02:47:45;9.85;;;8.30;;
22502;SDS011;11418;48.118;9.992;2022-07-30T02:51:49;10.82;;;8.60;;
22502;SDS011;11418;48.118;9.992;2022-07-30T02:55:51;12.05;;;8.73;;
22502;SDS011;11418;48.118;9.992;2022-07-30T02:59:54;12.43;;;9.77;;
22502;SDS011;11418;48.118;9.992;2022-07-30T03:03:56;11.80;;;9.20;;
22502;SDS011;11418;48.118;9.992;2022-07-30T03:07:57;10.93;;;8.70;;
22502;SDS011;11418;48.118;9.992;2022-07-30T03:11:59;9.25;;;7.82;;
22502;SDS011;11418;48.118;9.992;2022-07-30T03:16:02;14.48;;;9.50;;
22502;SDS011;11418;48.118;9.992;2022-07-30T03:20:06;10.00;;;8.77;;
22502;SDS011;11418;48.118;9.992;2022-07-30T03:24:09;12.10;;;9.00;;
22502;SDS011;11418;48.118;9.992;2022-07-30T03:28:11;9.85;;;8.85;;
22502;SDS011;11418;48.118;9.992;2022-07-30T03:32:13;12.23;;;8.80;;
22502;SDS011;11418;48.118;9.992;2022-07-30T03:36:14;11.25;;;8.93;;
22502;SDS011;11418;48.118;9.992;2022-07-30T03:40:17;13.02;;;9.32;;
22502;SDS011;11418;48.118;9.992;2022-07-30T03:44:18;10.43;;;9.05;;
22502;SDS011;11418;48.118;9.992;2022-07-30T03:48:19;14.68;;;9.55;;
22502;SDS011;11418;48.118;9.992;2022-07-30T03:52:21;10.98;;;9.30;;
22502;SDS011;11418;48.118;9.992;2022-07-30T03:56:22;12.63;;;9.38;;
22502;SDS011;11418;48.118;9.992;2022-07-30T04:00:23;11.35;;;10.18;;
22502;SDS011;11418;48.118;9.992;2022-07-30T04:04:24;10.38;;;9.18;;
22502;SDS011;11418;48.118;9.992;2022-07-30T04:08:25;14.75;;;8.43;;
22502;SDS011;11418;48.118;9.992;2022-07-30T04:12:27;11.60;;;8.85;;
22502;SDS011;11418;48.118;9.992;2022-07-30T04:16:36;9.35;;;8.38;;
22502;SDS011;11418;48.118;9.992;2022-07-30T04:20:42;9.82;;;8.57;;
22502;SDS011;11418;48.118;9.992;2022-07-30T04:24:44;9.73;;;8.68;;
22502;SDS011;11418;48.118;9.992;2022-07-30T04:28:46;11.88;;;8.43;;
22502;SDS011;11418;48.118;9.992;2022-07-30T04:32:48;9.10;;;8.05;;
22502;SDS011;11418;48.118;9.992;2022-07-30T04:36:49;9.80;;;8.40;;
22502;SDS011;11418;48.118;9.992;2022-07-30T04:40:49;10.45;;;8.90;;
22502;SDS011;11418;48.118;9.992;2022-07-30T04:44:50;8.63;;;7.60;;
22502;SDS011;11418;48.118;9.992;2022-07-30T04:48:51;10.43;;;7.55;;
22502;SDS011;11418;48.118;9.992;2022-07-30T04:52:52;10.00;;;9.00;;
22502;SDS011;11418;48.118;9.992;2022-07-30T04:56:54;14.80;;;8.85;;
22502;SDS011;11418;48.118;9.992;2022-07-30T05:00:55;10.18;;;8.73;;
22502;SDS011;11418;48.118;9.992;2022-07-30T05:04:57;10.45;;;7.80;;
22502;SDS011;11418;48.118;9.992;2022-07-30T05:08:59;8.18;;;7.38;;
22502;SDS011;11418;48.118;9.992;2022-07-30T05:13:00;8.70;;;7.88;;
22502;SDS011;11418;48.118;9.992;2022-07-30T05:17:00;9.10;;;7.97;;
22502;SDS011;11418;48.118;9.992;2022-07-30T05:21:01;10.20;;;7.78;;
22502;SDS011;11418;48.118;9.992;2022-07-30T05:25:02;8.25;;;7.25;;
22502;SDS011;11418;48.118;9.992;2022-07-30T05:29:03;9.48;;;7.15;;
22502;SDS011;11418;48.118;9.992;2022-07-30T05:33:04;9.65;;;7.18;;
22502;SDS011;11418;48.118;9.992;2022-07-30T05:37:04;8.82;;;6.43;;
22502;SDS011;11418;48.118;9.992;2022-07-30T05:41:05;9.05;;;6.40;;
22502;SDS011;11418;48.118;9.992;2022-07-30T05:45:06;6.65;;;5.22;;
22502;SDS011;11418;48.118;9.992;2022-07-30T05:49:06;7.25;;;5.47;;
22502;SDS011;11418;48.118;9.992;2022-07-30T05:53:07;7.65;;;5.18;;
22502;SDS011;11418;48.118;9.992;2022-07-30T05:57:08;5.75;;;4.82;;
22502;SDS011;11418;48.118;9.992;2022-07-30T06:01:09;8.00;;;4.90;;
22502;SDS011;11418;48.118;9.992;2022-07-30T06:05:09;7.22;;;4.88;;
22502;SDS011;11418;48.118;9.992;2022-07-30T06:09:10;7.13;;;5.30;;
22502;SDS011;11418;48.118;9.992;2022-07-30T06:13:10;5.53;;;5.03;;
22502;SDS011;11418;48.118;9.992;2022-07-30T06:17:11;6.63;;;5.20;;
22502;SDS011;11418;48.118;9.992;2022-07-30T06:21:11;6.38;;;4.90;;
22502;SDS011;11418;48.118;9.992;2022-07-30T06:25:12;6.07;;;5.10;;
22502;SDS011;11418;48.118;9.992;2022-07-30T06:29:13;8.85;;;5.55;;
22502;SDS011;11418;48.118;9.992;2022-07-30T06:33:14;6.85;;;5.38;;
22502;SDS011;11418;48.118;9.992;2022-07-30T06:37:15;14.18;;;6.18;;
22502;SDS011;11418;48.118;9.992;2022-07-30T06:41:15;11.25;;;6.50;;
22502;SDS011;11418;48.118;9.992;2022-07-30T06:45:16;9.48;;;5.57;;
22502;SDS011;11418;48.118;9.992;2022-07-30T06:49:16;6.28;;;5.35;;
22502;SDS011;11418;48.118;9.992;2022-07-30T06:53:17;8.15;;;6.15;;
22502;SDS011;11418;48.118;9.992;2022-07-30T06:57:18;11.13;;;5.82;;
22502;SDS011;11418;48.118;9.992;2022-07-30T07:01:18;9.35;;;5.15;;
22502;SDS011;11418;48.118;9.992;2022-07-30T07:05:22;6.82;;;5.40;;
22502;SDS011;11418;48.118;9.992;2022-07-30T07:09:22;6.63;;;5.53;;
22502;SDS011;11418;48.118;9.992;2022-07-30T07:13:23;9.90;;;5.75;;
22502;SDS011;11418;48.118;9.992;2022-07-30T07:17:23;17.90;;;6.10;;
22502;SDS011;11418;48.118;9.992;2022-07-30T07:21:24;9.55;;;5.70;;
22502;SDS011;11418;48.118;9.992;2022-07-30T07:25:25;6.47;;;5.20;;
22502;SDS011;11418;48.118;9.992;2022-07-30T07:29:25;9.50;;;4.68;;
22502;SDS011;11418;48.118;9.992;2022-07-30T07:33:26;7.38;;;5.30;;
22502;SDS011;11418;48.118;9.992;2022-07-30T07:37:26;7.90;;;5.20;;
22502;SDS011;11418;48.118;9.992;2022-07-30T07:41:27;8.90;;;4.82;;
22502;SDS011;11418;48.118;9.992;2022-07-30T07:45:27;5.75;;;4.50;;
22502;SDS011;11418;48.118;9.992;2022-07-30T07:49:28;4.75;;;4.10;;
22502;SDS011;11418;48.118;9.992;2022-07-30T07:53:29;5.80;;;4.32;;
22502;SDS011;11418;48.118;9.992;2022-07-30T07:57:29;7.63;;;5.07;;
22502;SDS011;11418;48.118;9.992;2022-07-30T08:01:30;8.40;;;4.40;;
22502;SDS011;11418;48.118;9.992;2022-07-30T08:05:30;7.15;;;4.85;;
22502;SDS011;11418;48.118;9.992;2022-07-30T08:09:32;6.78;;;5.00;;
22502;SDS011;11418;48.118;9.992;2022-07-30T08:13:32;5.40;;;3.83;;
22502;SDS011;11418;48.118;9.992;2022-07-30T08:17:33;7.97;;;4.43;;
22502;SDS011;11418;48.118;9.992;2022-07-30T08:21:42;5.53;;;4.70;;
22502;SDS011;11418;48.118;9.992;2022-07-30T08:25:42;6.35;;;4.88;;
22502;SDS011;11418;48.118;9.992;2022-07-30T08:29:43;5.57;;;3.88;;
22502;SDS011;11418;48.118;9.992;2022-07-30T08:33:43;5.97;;;4.30;;
22502;SDS011;11418;48.118;9.992;2022-07-30T08:37:44;7.78;;;4.45;;
22502;SDS011;11418;48.118;9.992;2022-07-30T08:41:44;6.00;;;4.88;;
22502;SDS011;11418;48.118;9.992;2022-07-30T08:45:45;5.28;;;4.38;;
22502;SDS011;11418;48.118;9.992;2022-07-30T08:49:47;7.50;;;4.35;;
22502;SDS011;11418;48.118;9.992;2022-07-30T08:53:48;6.75;;;4.22;;
22502;SDS011;11418;48.118;9.992;2022-07-30T08:57:50;10.07;;;4.50;;
22502;SDS011;11418;48.118;9.992;2022-07-30T09:01:50;4.68;;;4.15;;
22502;SDS011;11418;48.118;9.992;2022-07-30T09:05:51;8.13;;;4.20;;
22502;SDS011;11418;48.118;9.992;2022-07-30T09:09:52;7.07;;;3.78;;
22502;SDS011;11418;48.118;9.992;2022-07-30T09:13:52;9.43;;;4.35;;
22502;SDS011;11418;48.118;9.992;2022-07-30T09:18:02;4.53;;;3.72;;
22502;SDS011;11418;48.118;9.992;2022-07-30T09:22:03;4.60;;;3.33;;
22502;SDS011;11418;48.118;9.992;2022-07-30T09:26:04;5.63;;;3.10;;
22502;SDS011;11418;48.118;9.992;2022-07-30T09:30:05;7.13;;;3.28;;
22502;SDS011;11418;48.118;9.992;2022-07-30T09:34:21;5.35;;;3.10;;
22502;SDS011;11418;48.118;9.992;2022-07-30T09:38:24;10.95;;;3.63;;
22502;SDS011;11418;48.118;9.992;2022-07-30T09:42:26;5.55;;;3.20;;
22502;SDS011;11418;48.118;9.992;2022-07-30T09:46:41;4.07;;;3.20;;
22502;SDS011;11418;48.118;9.992;2022-07-30T09:50:52;6.13;;;3.20;;
22502;SDS011;11418;48.118;9.992;2022-07-30T09:54:53;3.95;;;2.63;;
22502;SDS011;11418;48.118;9.992;2022-07-30T09:58:54;4.47;;;2.88;;
22502;SDS011;11418;48.118;9.992;2022-07-30T10:02:55;3.58;;;2.63;;
22502;SDS011;11418;48.118;9.992;2022-07-30T10:06:56;2.90;;;2.58;;
22502;SDS011;11418;48.118;9.992;2022-07-30T10:10:59;4.15;;;3.00;;
22502;SDS011;11418;48.118;9.992;2022-07-30T10:14:59;4.60;;;2.20;;
22502;SDS011;11418;48.118;9.992;2022-07-30T10:19:01;3.92;;;2.35;;
22502;SDS011;11418;48.118;9.992;2022-07-30T10:23:05;4.00;;;2.45;;
22502;SDS011;11418;48.118;9.992;2022-07-30T10:27:07;4.25;;;2.10;;
22502;SDS011;11418;48.118;9.992;2022-07-30T10:31:08;4.80;;;1.98;;
22502;SDS011;11418;48.118;9.992;2022-07-30T10:35:10;2.90;;;2.30;;
22502;SDS011;11418;48.118;9.992;2022-07-30T10:39:16;1.98;;;1.77;;
22502;SDS011;11418;48.118;9.992;2022-07-30T10:47:20;3.50;;;2.10;;
22502;SDS011;11418;48.118;9.992;2022-07-30T10:51:41;4.22;;;1.90;;
22502;SDS011;11418;48.118;9.992;2022-07-30T10:55:51;3.25;;;2.00;;
22502;SDS011;11418;48.118;9.992;2022-07-30T11:00:13;2.00;;;1.90;;
22502;SDS011;11418;48.118;9.992;2022-07-30T11:20:41;4.13;;;2.00;;
22502;SDS011;11418;48.118;9.992;2022-07-30T11:24:42;5.38;;;2.10;;
22502;SDS011;11418;48.118;9.992;2022-07-30T11:28:44;3.13;;;1.85;;
22502;SDS011;11418;48.118;9.992;2022-07-30T11:32:46;2.65;;;1.92;;
22502;SDS011;11418;48.118;9.992;2022-07-30T11:41:10;2.83;;;2.08;;
22502;SDS011;11418;48.118;9.992;2022-07-30T11:49:14;2.63;;;1.80;;
22502;SDS011;11418;48.118;9.992;2022-07-30T11:53:16;7.28;;;2.20;;
22502;SDS011;11418;48.118;9.992;2022-07-30T11:57:18;3.47;;;2.00;;
22502;SDS011;11418;48.118;9.992;2022-07-30T12:01:19;3.10;;;2.00;;
22502;SDS011;11418;48.118;9.992;2022-07-30T12:05:23;2.78;;;1.83;;
22502;SDS011;11418;48.118;9.992;2022-07-30T12:09:25;4.50;;;2.13;;
22502;SDS011;11418;48.118;9.992;2022-07-30T12:13:29;5.13;;;2.08;;
22502;SDS011;11418;48.118;9.992;2022-07-30T12:17:43;3.33;;;2.10;;
22502;SDS011;11418;48.118;9.992;2022-07-30T12:21:44;6.15;;;2.40;;
22502;SDS011;11418;48.118;9.992;2022-07-30T12:25:45;4.15;;;2.03;;
22502;SDS011;11418;48.118;9.992;2022-07-30T12:29:46;4.05;;;2.00;;
22502;SDS011;11418;48.118;9.992;2022-07-30T12:33:46;4.80;;;1.92;;
22502;SDS011;11418;48.118;9.992;2022-07-30T12:38:00;11.50;;;2.83;;
22502;SDS011;11418;48.118;9.992;2022-07-30T12:42:03;2.72;;;2.25;;
22502;SDS011;11418;48.118;9.992;2022-07-30T12:46:03;6.35;;;2.17;;
22502;SDS011;11418;48.118;9.992;2022-07-30T12:50:16;2.10;;;1.90;;
22502;SDS011;11418;48.118;9.992;2022-07-30T12:54:17;2.80;;;2.08;;
22502;SDS011;11418;48.118;9.992;2022-07-30T12:58:18;3.10;;;1.80;;
22502;SDS011;11418;48.118;9.992;2022-07-30T13:02:34;4.85;;;1.95;;
22502;SDS011;11418;48.118;9.992;2022-07-30T13:06:35;3.58;;;2.35;;
22502;SDS011;11418;48.118;9.992;2022-07-30T13:10:36;4.70;;;2.00;;
22502;SDS011;11418;48.118;9.992;2022-07-30T13:14:38;2.15;;;1.70;;
22502;SDS011;11418;48.118;9.992;2022-07-30T13:18:38;2.78;;;1.70;;
22502;SDS011;11418;48.118;9.992;2022-07-30T13:22:40;3.42;;;1.60;;
22502;SDS011;11418;48.118;9.992;2022-07-30T13:26:41;1.67;;;1.48;;
22502;SDS011;11418;48.118;9.992;2022-07-30T13:30:41;2.28;;;1.52;;
22502;SDS011;11418;48.118;9.992;2022-07-30T13:34:42;1.80;;;1.50;;
22502;SDS011;11418;48.118;9.992;2022-07-30T13:38:43;1.65;;;1.50;;
22502;SDS011;11418;48.118;9.992;2022-07-30T13:42:44;2.70;;;1.70;;
22502;SDS011;11418;48.118;9.992;2022-07-30T13:46:45;2.83;;;1.50;;
22502;SDS011;11418;48.118;9.992;2022-07-30T13:50:45;3.00;;;1.50;;
22502;SDS011;11418;48.118;9.992;2022-07-30T13:54:49;2.55;;;1.38;;
22502;SDS011;11418;48.118;9.992;2022-07-30T13:58:51;3.72;;;1.60;;
22502;SDS011;11418;48.118;9.992;2022-07-30T14:02:51;4.88;;;1.75;;
22502;SDS011;11418;48.118;9.992;2022-07-30T14:06:53;3.65;;;1.60;;
22502;SDS011;11418;48.118;9.992;2022-07-30T14:10:54;2.47;;;1.40;;
22502;SDS011;11418;48.118;9.992;2022-07-30T14:14:54;2.28;;;1.60;;
22502;SDS011;11418;48.118;9.992;2022-07-30T14:18:55;1.85;;;1.65;;
22502;SDS011;11418;48.118;9.992;2022-07-30T14:22:56;2.67;;;1.58;;
22502;SDS011;11418;48.118;9.992;2022-07-30T14:26:57;2.47;;;1.40;;
22502;SDS011;11418;48.118;9.992;2022-07-30T14:30:58;1.38;;;1.17;;
22502;SDS011;11418;48.118;9.992;2022-07-30T14:34:58;4.93;;;1.38;;
22502;SDS011;11418;48.118;9.992;2022-07-30T14:38:59;3.28;;;1.70;;
22502;SDS011;11418;48.118;9.992;2022-07-30T14:43:03;4.75;;;1.40;;
22502;SDS011;11418;48.118;9.992;2022-07-30T14:47:04;2.17;;;1.40;;
22502;SDS011;11418;48.118;9.992;2022-07-30T14:51:04;6.03;;;1.60;;
22502;SDS011;11418;48.118;9.992;2022-07-30T14:55:05;2.22;;;1.23;;
22502;SDS011;11418;48.118;9.992;2022-07-30T14:59:06;1.77;;;1.17;;
22502;SDS011;11418;48.118;9.992;2022-07-30T15:03:07;3.22;;;1.10;;
22502;SDS011;11418;48.118;9.992;2022-07-30T15:07:07;1.35;;;1.25;;
22502;SDS011;11418;48.118;9.992;2022-07-30T15:11:08;1.88;;;1.10;;
22502;SDS011;11418;48.118;9.992;2022-07-30T15:15:09;3.25;;;1.48;;
22502;SDS011;11418;48.118;9.992;2022-07-30T15:19:09;2.15;;;1.20;;
22502;SDS011;11418;48.118;9.992;2022-07-30T15:23:11;1.60;;;1.48;;
22502;SDS011;11418;48.118;9.992;2022-07-30T15:27:13;3.50;;;1.67;;
22502;SDS011;11418;48.118;9.992;2022-07-30T15:31:13;2.63;;;2.10;;
22502;SDS011;11418;48.118;9.992;2022-07-30T15:35:14;2.40;;;2.20;;
22502;SDS011;11418;48.118;9.992;2022-07-30T15:39:14;2.78;;;1.88;;
22502;SDS011;11418;48.118;9.992;2022-07-30T15:43:15;4.15;;;2.33;;
22502;SDS011;11418;48.118;9.992;2022-07-30T15:47:16;14.50;;;3.20;;
22502;SDS011;11418;48.118;9.992;2022-07-30T15:51:16;2.85;;;2.13;;
22502;SDS011;11418;48.118;9.992;2022-07-30T15:55:17;3.40;;;2.58;;
22502;SDS011;11418;48.118;9.992;2022-07-30T15:59:18;5.03;;;2.92;;
22502;SDS011;11418;48.118;9.992;2022-07-30T16:03:19;6.88;;;2.75;;
22502;SDS011;11418;48.118;9.992;2022-07-30T16:07:20;3.33;;;2.20;;
22502;SDS011;11418;48.118;9.992;2022-07-30T16:11:21;4.53;;;2.63;;
22502;SDS011;11418;48.118;9.992;2022-07-30T16:15:21;2.35;;;2.15;;
22502;SDS011;11418;48.118;9.992;2022-07-30T16:19:22;5.13;;;2.45;;
22502;SDS011;11418;48.118;9.992;2022-07-30T16:23:23;8.63;;;2.17;;
22502;SDS011;11418;48.118;9.992;2022-07-30T16:27:24;2.42;;;2.22;;
22502;SDS011;11418;48.118;9.992;2022-07-30T16:31:24;4.00;;;2.10;;
22502;SDS011;11418;48.118;9.992;2022-07-30T16:35:25;3.65;;;1.90;;
22502;SDS011;11418;48.118;9.992;2022-07-30T16:39:25;2.67;;;2.00;;
22502;SDS011;11418;48.118;9.992;2022-07-30T16:43:26;1.85;;;1.65;;
22502;SDS011;11418;48.118;9.992;2022-07-30T16:47:26;1.75;;;1.55;;
22502;SDS011;11418;48.118;9.992;2022-07-30T16:51:27;5.45;;;1.70;;
22502;SDS011;11418;48.118;9.992;2022-07-30T16:55:28;2.22;;;1.80;;
22502;SDS011;11418;48.118;9.992;2022-07-30T16:59:28;2.13;;;1.90;;
22502;SDS011;11418;48.118;9.992;2022-07-30T17:03:29;2.42;;;2.05;;
22502;SDS011;11418;48.118;9.992;2022-07-30T17:07:29;5.28;;;1.77;;
22502;SDS011;11418;48.118;9.992;2022-07-30T17:11:30;2.72;;;2.20;;
22502;SDS011;11418;48.118;9.992;2022-07-30T17:15:33;3.70;;;2.20;;
22502;SDS011;11418;48.118;9.992;2022-07-30T17:19:34;2.78;;;2.08;;
22502;SDS011;11418;48.118;9.992;2022-07-30T17:23:35;6.40;;;2.33;;
22502;SDS011;11418;48.118;9.992;2022-07-30T17:27:35;3.53;;;1.80;;
22502;SDS011;11418;48.118;9.992;2022-07-30T17:31:36;4.03;;;2.13;;
22502;SDS011;11418;48.118;9.992;2022-07-30T17:35:42;5.03;;;2.35;;
22502;SDS011;11418;48.118;9.992;2022-07-30T17:39:42;4.70;;;2.20;;
22502;SDS011;11418;48.118;9.992;2022-07-30T17:43:43;3.53;;;2.80;;
22502;SDS011;11418;48.118;9.992;2022-07-30T17:47:43;3.20;;;2.25;;
22502;SDS011;11418;48.118;9.992;2022-07-30T17:51:44;2.45;;;2.25;;
22502;SDS011;11418;48.118;9.992;2022-07-30T17:55:44;5.78;;;2.53;;
22502;SDS011;11418;48.118;9.992;2022-07-30T17:59:45;3.03;;;2.45;;
22502;SDS011;11418;48.118;9.992;2022-07-30T18:03:46;2.42;;;2.20;;
22502;SDS011;11418;48.118;9.992;2022-07-30T18:07:46;3.03;;;2.60;;
22502;SDS011;11418;48.118;9.992;2022-07-30T18:11:47;4.00;;;2.53;;
22502;SDS011;11418;48.118;9.992;2022-07-30T18:15:48;4.18;;;2.67;;
22502;SDS011;11418;48.118;9.992;2022-07-30T18:19:48;3.15;;;2.30;;
22502;SDS011;11418;48.118;9.992;2022-07-30T18:23:49;3.65;;;2.63;;
22502;SDS011;11418;48.118;9.992;2022-07-30T18:27:50;2.92;;;2.50;;
22502;SDS011;11418;48.118;9.992;2022-07-30T18:31:50;5.47;;;2.88;;
22502;SDS011;11418;48.118;9.992;2022-07-30T18:35:51;3.50;;;2.80;;
22502;SDS011;11418;48.118;9.992;2022-07-30T18:39:51;3.05;;;2.75;;
22502;SDS011;11418;48.118;9.992;2022-07-30T18:43:52;6.53;;;2.88;;
22502;SDS011;11418;48.118;9.992;2022-07-30T18:47:53;3.17;;;2.88;;
22502;SDS011;11418;48.118;9.992;2022-07-30T18:51:54;4.50;;;2.95;;
22502;SDS011;11418;48.118;9.992;2022-07-30T18:55:55;3.53;;;3.22;;
22502;SDS011;11418;48.118;9.992;2022-07-30T18:59:56;5.78;;;2.95;;
22502;SDS011;11418;48.118;9.992;2022-07-30T19:03:56;5.57;;;3.50;;
22502;SDS011;11418;48.118;9.992;2022-07-30T19:07:57;6.10;;;3.67;;
22502;SDS011;11418;48.118;9.992;2022-07-30T19:11:57;4.30;;;2.90;;
22502;SDS011;11418;48.118;9.992;2022-07-30T19:15:58;3.47;;;3.15;;
22502;SDS011;11418;48.118;9.992;2022-07-30T19:19:58;3.28;;;2.90;;
22502;SDS011;11418;48.118;9.992;2022-07-30T19:23:59;3.30;;;3.00;;
22502;SDS011;11418;48.118;9.992;2022-07-30T19:28:01;5.45;;;3.15;;
22502;SDS011;11418;48.118;9.992;2022-07-30T19:32:03;3.85;;;3.15;;
22502;SDS011;11418;48.118;9.992;2022-07-30T19:36:04;3.53;;;3.17;;
22502;SDS011;11418;48.118;9.992;2022-07-30T19:40:05;3.53;;;3.20;;
22502;SDS011;11418;48.118;9.992;2022-07-30T19:44:06;4.72;;;3.25;;
22502;SDS011;11418;48.118;9.992;2022-07-30T19:48:08;5.90;;;3.58;;
22502;SDS011;11418;48.118;9.992;2022-07-30T19:52:10;4.43;;;3.28;;
22502;SDS011;11418;48.118;9.992;2022-07-30T19:56:11;4.85;;;3.40;;
22502;SDS011;11418;48.118;9.992;2022-07-30T20:00:12;3.78;;;3.38;;
22502;SDS011;11418;48.118;9.992;2022-07-30T20:04:12;3.25;;;2.95;;
22502;SDS011;11418;48.118;9.992;2022-07-30T20:08:13;3.45;;;2.90;;
22502;SDS011;11418;48.118;9.992;2022-07-30T20:12:14;3.30;;;2.90;;
22502;SDS011;11418;48.118;9.992;2022-07-30T20:16:15;6.00;;;3.72;;
22502;SDS011;11418;48.118;9.992;2022-07-30T20:20:16;8.63;;;3.42;;
22502;SDS011;11418;48.118;9.992;2022-07-30T20:24:17;3.67;;;3.10;;
22502;SDS011;11418;48.118;9.992;2022-07-30T20:28:17;6.20;;;3.58;;
22502;SDS011;11418;48.118;9.992;2022-07-30T20:32:18;7.45;;;4.10;;
22502;SDS011;11418;48.118;9.992;2022-07-30T20:36:20;4.22;;;3.70;;
22502;SDS011;11418;48.118;9.992;2022-07-30T20:40:21;5.05;;;3.75;;
22502;SDS011;11418;48.118;9.992;2022-07-30T20:44:23;5.45;;;4.07;;
22502;SDS011;11418;48.118;9.992;2022-07-30T20:48:24;4.43;;;4.03;;
22502;SDS011;11418;48.118;9.992;2022-07-30T20:52:29;4.20;;;3.80;;
22502;SDS011;11418;48.118;9.992;2022-07-30T20:56:30;5.00;;;4.38;;
22502;SDS011;11418;48.118;9.992;2022-07-30T21:00:34;7.68;;;4.68;;
22502;SDS011;11418;48.118;9.992;2022-07-30T21:04:35;5.88;;;4.93;;
22502;SDS011;11418;48.118;9.992;2022-07-30T21:08:36;5.28;;;4.65;;
22502;SDS011;11418;48.118;9.992;2022-07-30T21:12:37;6.57;;;5.28;;
22502;SDS011;11418;48.118;9.992;2022-07-30T21:16:38;9.07;;;6.20;;
22502;SDS011;11418;48.118;9.992;2022-07-30T21:20:40;11.75;;;6.95;;
22502;SDS011;11418;48.118;9.992;2022-07-30T21:24:40;9.73;;;7.22;;
22502;SDS011;11418;48.118;9.992;2022-07-30T21:28:41;10.40;;;7.05;;
22502;SDS011;11418;48.118;9.992;2022-07-30T21:32:41;8.05;;;6.82;;
22502;SDS011;11418;48.118;9.992;2022-07-30T21:36:42;7.93;;;6.40;;
22502;SDS011;11418;48.118;9.992;2022-07-30T21:40:42;6.28;;;5.00;;
22502;SDS011;11418;48.118;9.992;2022-07-30T21:44:43;6.15;;;5.55;;
22502;SDS011;11418;48.118;9.992;2022-07-30T21:48:43;5.25;;;4.72;;
22502;SDS011;11418;48.118;9.992;2022-07-30T21:52:44;5.70;;;4.47;;
22502;SDS011;11418;48.118;9.992;2022-07-30T21:56:44;6.18;;;5.40;;
22502;SDS011;11418;48.118;9.992;2022-07-30T22:04:49;6.25;;;5.25;;
22502;SDS011;11418;48.118;9.992;2022-07-30T22:08:50;6.93;;;5.38;;
22502;SDS011;11418;48.118;9.992;2022-07-30T22:12:51;5.45;;;4.95;;
22502;SDS011;11418;48.118;9.992;2022-07-30T22:16:51;5.05;;;4.60;;
22502;SDS011;11418;48.118;9.992;2022-07-30T22:20:52;5.85;;;4.97;;
22502;SDS011;11418;48.118;9.992;2022-07-30T22:24:53;5.72;;;5.18;;
22502;SDS011;11418;48.118;9.992;2022-07-30T22:28:55;5.95;;;5.03;;
22502;SDS011;11418;48.118;9.992;2022-07-30T22:33:05;6.18;;;5.57;;
22502;SDS011;11418;48.118;9.992;2022-07-30T22:37:08;6.72;;;5.93;;
22502;SDS011;11418;48.118;9.992;2022-07-30T22:41:08;6.82;;;6.07;;
22502;SDS011;11418;48.118;9.992;2022-07-30T22:45:13;8.02;;;5.57;;
22502;SDS011;11418;48.118;9.992;2022-07-30T22:49:14;6.53;;;5.22;;
22502;SDS011;11418;48.118;9.992;2022-07-30T22:53:15;7.90;;;5.38;;
22502;SDS011;11418;48.118;9.992;2022-07-30T22:57:15;6.25;;;5.65;;
22502;SDS011;11418;48.118;9.992;2022-07-30T23:01:16;7.88;;;6.80;;
22502;SDS011;11418;48.118;9.992;2022-07-30T23:05:17;8.43;;;7.45;;
22502;SDS011;11418;48.118;9.992;2022-07-30T23:09:17;9.73;;;7.47;;
22502;SDS011;11418;48.118;9.992;2022-07-30T23:13:18;12.95;;;10.88;;
22502;SDS011;11418;48.118;9.992;2022-07-30T23:17:18;10.52;;;7.72;;
22502;SDS011;11418;48.118;9.992;2022-07-30T23:21:19;7.07;;;6.38;;
22502;SDS011;11418;48.118;9.992;2022-07-30T23:25:20;7.93;;;7.13;;
22502;SDS011;11418;48.118;9.992;2022-07-30T23:29:21;8.05;;;7.25;;
22502;SDS011;11418;48.118;9.992;2022-07-30T23:33:22;7.25;;;6.55;;
22502;SDS011;11418;48.118;9.992;2022-07-30T23:37:22;7.45;;;6.55;;
22502;SDS011;11418;48.118;9.992;2022-07-30T23:41:23;7.32;;;6.35;;
22502;SDS011;11418;48.118;9.992;2022-07-30T23:45:23;9.02;;;6.97;;
22502;SDS011;11418;48.118;9.992;2022-07-30T23:49:24;7.05;;;6.35;;
22502;SDS011;11418;48.118;9.992;2022-07-30T23:53:24;7.18;;;6.47;;
22502;SDS011;11418;48.118;9.992;2022-07-30T23:57:25;7.63;;;6.78;;
